SWA556 KJAX-KFLL
Flight info
| Callsign | SWA556 |
|---|---|
| Flight time | 0h 50m |
| Altitude | 35000 |
| Route | EXBOX2 EXBOX PRMUS CUUDA3 |
| Aircraft | B737/M-SDE2E3FGHIRWXY/LB1 |
Departure
| Time | 2026-05-04 00:55 |
|---|---|
| Airport | Jacksonville International Airport (KJAX) |
Arrival
| Time | 2026-05-04 01:45 |
|---|---|
| Airport | Fort Lauderdale Hollywood International Airport (KFLL) |
| Time | Latitude | Longitude | Altitude | Speed | Heading |
|---|---|---|---|---|---|
| 2026-05-04 00:42 | 30.49327 | -81.68621 | 34 ft | 0 kts | 104° |
| 2026-05-04 00:48 | 30.49330 | -81.68635 | 34 ft | 4 kts | 104° |
| 2026-05-04 00:48 | 30.49336 | -81.68666 | 34 ft | 4 kts | 97° |
| 2026-05-04 00:48 | 30.49335 | -81.68694 | 34 ft | 4 kts | 54° |
| 2026-05-04 00:48 | 30.49329 | -81.68701 | 34 ft | 0 kts | 352° |
| 2026-05-04 00:51 | 30.49354 | -81.68707 | 31 ft | 8 kts | 343° |
| 2026-05-04 00:51 | 30.49387 | -81.68771 | 34 ft | 13 kts | 272° |
| 2026-05-04 00:51 | 30.49378 | -81.68893 | 33 ft | 18 kts | 264° |
| 2026-05-04 00:52 | 30.49431 | -81.69006 | 34 ft | 18 kts | 329° |
| 2026-05-04 00:52 | 30.49542 | -81.69080 | 33 ft | 18 kts | 329° |
| 2026-05-04 00:52 | 30.49655 | -81.69158 | 34 ft | 20 kts | 323° |
| 2026-05-04 00:52 | 30.49664 | -81.69291 | 33 ft | 18 kts | 251° |
| 2026-05-04 00:53 | 30.49616 | -81.69444 | 35 ft | 20 kts | 250° |
| 2026-05-04 00:53 | 30.49575 | -81.69577 | 34 ft | 16 kts | 250° |
| 2026-05-04 00:53 | 30.49540 | -81.69694 | 34 ft | 15 kts | 250° |
| 2026-05-04 00:53 | 30.49502 | -81.69816 | 34 ft | 15 kts | 250° |
| 2026-05-04 00:54 | 30.49490 | -81.69913 | 34 ft | 12 kts | 294° |
| 2026-05-04 00:54 | 30.49573 | -81.69960 | 33 ft | 16 kts | 345° |
| 2026-05-04 00:54 | 30.49653 | -81.69901 | 32 ft | 17 kts | 69° |
| 2026-05-04 00:54 | 30.49798 | -81.69419 | 35 ft | 113 kts | 71° |
| 2026-05-04 00:55 | 30.50149 | -81.68261 | 211 ft | 183 kts | 72° |
| 2026-05-04 00:55 | 30.50534 | -81.66891 | 1486 ft | 173 kts | 76° |
| 2026-05-04 00:55 | 30.50765 | -81.65500 | 2274 ft | 186 kts | 98° |
| 2026-05-04 00:55 | 30.50449 | -81.64157 | 3293 ft | 171 kts | 107° |
| 2026-05-04 00:56 | 30.49961 | -81.62841 | 3932 ft | 182 kts | 120° |
| 2026-05-04 00:56 | 30.49132 | -81.61685 | 4566 ft | 195 kts | 136° |
| 2026-05-04 00:56 | 30.48045 | -81.60594 | 4943 ft | 222 kts | 139° |
| 2026-05-04 00:56 | 30.46773 | -81.59382 | 5199 ft | 249 kts | 140° |
| 2026-05-04 00:57 | 30.45384 | -81.58071 | 5685 ft | 270 kts | 140° |
| 2026-05-04 00:57 | 30.43889 | -81.56660 | 6527 ft | 282 kts | 140° |
| 2026-05-04 00:57 | 30.42372 | -81.55226 | 7516 ft | 285 kts | 141° |
| 2026-05-04 00:57 | 30.40812 | -81.53749 | 8502 ft | 291 kts | 141° |
| 2026-05-04 00:58 | 30.39245 | -81.52266 | 9430 ft | 297 kts | 142° |
| 2026-05-04 00:58 | 30.37620 | -81.50727 | 10357 ft | 302 kts | 143° |
| 2026-05-04 00:58 | 30.37281 | -81.50406 | 10533 ft | 303 kts | 143° |
| 2026-05-04 00:58 | 30.35637 | -81.48848 | 11392 ft | 309 kts | 143° |
| 2026-05-04 00:59 | 30.33953 | -81.47251 | 12246 ft | 314 kts | 144° |
| 2026-05-04 00:59 | 30.32243 | -81.45630 | 13115 ft | 320 kts | 144° |
| 2026-05-04 00:59 | 30.30514 | -81.43993 | 13968 ft | 326 kts | 145° |
| 2026-05-04 00:59 | 30.28742 | -81.42317 | 14779 ft | 329 kts | 146° |
| 2026-05-04 01:00 | 30.26965 | -81.40632 | 15652 ft | 331 kts | 146° |
| 2026-05-04 01:00 | 30.25178 | -81.38940 | 16522 ft | 333 kts | 146° |
| 2026-05-04 01:00 | 30.23401 | -81.37256 | 17361 ft | 336 kts | 147° |
| 2026-05-04 01:00 | 30.21573 | -81.35527 | 18201 ft | 339 kts | 147° |
| 2026-05-04 01:01 | 30.19729 | -81.33786 | 18946 ft | 342 kts | 148° |
| 2026-05-04 01:01 | 30.17901 | -81.32062 | 19634 ft | 346 kts | 148° |
| 2026-05-04 01:01 | 30.16012 | -81.30280 | 20344 ft | 350 kts | 148° |
| 2026-05-04 01:01 | 30.14112 | -81.28485 | 21068 ft | 353 kts | 148° |
| 2026-05-04 01:02 | 30.12223 | -81.26703 | 21738 ft | 357 kts | 149° |
| 2026-05-04 01:02 | 30.10272 | -81.24867 | 22406 ft | 362 kts | 149° |
| 2026-05-04 01:02 | 30.08308 | -81.23020 | 23051 ft | 367 kts | 149° |
| 2026-05-04 01:02 | 30.06314 | -81.21144 | 23749 ft | 370 kts | 150° |
| 2026-05-04 01:03 | 30.04176 | -81.19546 | 24321 ft | 361 kts | 164° |
| 2026-05-04 01:03 | 30.01886 | -81.18561 | 24927 ft | 351 kts | 175° |
| 2026-05-04 01:03 | 29.99503 | -81.18118 | 25545 ft | 343 kts | 184° |
| 2026-05-04 01:03 | 29.97119 | -81.17899 | 26177 ft | 345 kts | 185° |
| 2026-05-04 01:04 | 29.94716 | -81.17680 | 26810 ft | 348 kts | 184° |
| 2026-05-04 01:04 | 29.92270 | -81.17442 | 27112 ft | 361 kts | 184° |
| 2026-05-04 01:04 | 29.89694 | -81.17030 | 27146 ft | 388 kts | 175° |
| 2026-05-04 01:04 | 29.87070 | -81.16048 | 27153 ft | 416 kts | 165° |
| 2026-05-04 01:05 | 29.84423 | -81.14437 | 27142 ft | 444 kts | 155° |
| 2026-05-04 01:05 | 29.81743 | -81.12525 | 27139 ft | 456 kts | 159° |
| 2026-05-04 01:05 | 29.78863 | -81.10998 | 27129 ft | 458 kts | 168° |
| 2026-05-04 01:05 | 29.75801 | -81.09804 | 27132 ft | 468 kts | 170° |
| 2026-05-04 01:06 | 29.72659 | -81.08694 | 27133 ft | 477 kts | 171° |
| 2026-05-04 01:06 | 29.69451 | -81.07598 | 27117 ft | 481 kts | 171° |
| 2026-05-04 01:06 | 29.66240 | -81.06496 | 27108 ft | 481 kts | 171° |
| 2026-05-04 01:06 | 29.63041 | -81.05382 | 27102 ft | 481 kts | 170° |
| 2026-05-04 01:07 | 29.59837 | -81.04258 | 27104 ft | 481 kts | 171° |
| 2026-05-04 01:07 | 29.56631 | -81.03124 | 27108 ft | 481 kts | 170° |
| 2026-05-04 01:07 | 29.53425 | -81.01977 | 27112 ft | 481 kts | 170° |
| 2026-05-04 01:07 | 29.50270 | -81.00844 | 27075 ft | 481 kts | 170° |
| 2026-05-04 01:08 | 29.47073 | -80.99692 | 27099 ft | 481 kts | 170° |
| 2026-05-04 01:08 | 29.43880 | -80.98539 | 27100 ft | 482 kts | 170° |
| 2026-05-04 01:08 | 29.40679 | -80.97386 | 27106 ft | 482 kts | 170° |
| 2026-05-04 01:08 | 29.37471 | -80.96233 | 27105 ft | 482 kts | 170° |
| 2026-05-04 01:09 | 29.34272 | -80.95086 | 27101 ft | 482 kts | 170° |
| 2026-05-04 01:09 | 29.31069 | -80.93939 | 27100 ft | 482 kts | 170° |
| 2026-05-04 01:09 | 29.27865 | -80.92793 | 27116 ft | 482 kts | 170° |
| 2026-05-04 01:09 | 29.24665 | -80.91649 | 27117 ft | 482 kts | 170° |
| 2026-05-04 01:10 | 29.21454 | -80.90503 | 27080 ft | 482 kts | 170° |
| 2026-05-04 01:10 | 29.18291 | -80.89374 | 27108 ft | 482 kts | 171° |
| 2026-05-04 01:10 | 29.15060 | -80.88222 | 27101 ft | 483 kts | 171° |
| 2026-05-04 01:10 | 29.11854 | -80.87080 | 27109 ft | 483 kts | 170° |
| 2026-05-04 01:11 | 29.08648 | -80.85939 | 27112 ft | 483 kts | 171° |
| 2026-05-04 01:11 | 29.05433 | -80.84795 | 27112 ft | 483 kts | 171° |
| 2026-05-04 01:11 | 29.02219 | -80.83652 | 27110 ft | 483 kts | 171° |
| 2026-05-04 01:11 | 28.99005 | -80.82511 | 27109 ft | 483 kts | 171° |
| 2026-05-04 01:12 | 28.95828 | -80.81382 | 27105 ft | 483 kts | 171° |
| 2026-05-04 01:12 | 28.92622 | -80.80245 | 27058 ft | 483 kts | 171° |
| 2026-05-04 01:12 | 28.89411 | -80.79106 | 27092 ft | 482 kts | 171° |
| 2026-05-04 01:12 | 28.86202 | -80.77969 | 27087 ft | 483 kts | 171° |
| 2026-05-04 01:13 | 28.82990 | -80.76832 | 27092 ft | 483 kts | 171° |
| 2026-05-04 01:13 | 28.79781 | -80.75696 | 27074 ft | 483 kts | 171° |
| 2026-05-04 01:13 | 28.76570 | -80.74560 | 27082 ft | 483 kts | 171° |
| 2026-05-04 01:13 | 28.73350 | -80.73422 | 27077 ft | 483 kts | 171° |
| 2026-05-04 01:14 | 28.70145 | -80.72289 | 27076 ft | 483 kts | 171° |
| 2026-05-04 01:14 | 28.66927 | -80.71153 | 27076 ft | 483 kts | 171° |
| 2026-05-04 01:14 | 28.63751 | -80.70032 | 27078 ft | 483 kts | 171° |
| 2026-05-04 01:14 | 28.60538 | -80.68899 | 27060 ft | 482 kts | 171° |
| 2026-05-04 01:15 | 28.57329 | -80.67768 | 27065 ft | 482 kts | 171° |
| 2026-05-04 01:15 | 28.54150 | -80.66648 | 27069 ft | 482 kts | 171° |
| 2026-05-04 01:15 | 28.50940 | -80.65519 | 27073 ft | 482 kts | 171° |
| 2026-05-04 01:15 | 28.47736 | -80.64392 | 27095 ft | 482 kts | 171° |
| 2026-05-04 01:16 | 28.44526 | -80.63264 | 27090 ft | 482 kts | 171° |
| 2026-05-04 01:16 | 28.41313 | -80.62136 | 27056 ft | 482 kts | 171° |
| 2026-05-04 01:16 | 28.38113 | -80.61013 | 27055 ft | 482 kts | 171° |
| 2026-05-04 01:16 | 28.34889 | -80.59882 | 27056 ft | 482 kts | 171° |
| 2026-05-04 01:17 | 28.31679 | -80.58756 | 27032 ft | 482 kts | 171° |
| 2026-05-04 01:17 | 28.28522 | -80.57650 | 27049 ft | 481 kts | 171° |
| 2026-05-04 01:17 | 28.25318 | -80.56528 | 27049 ft | 481 kts | 171° |
| 2026-05-04 01:17 | 28.22103 | -80.55403 | 27053 ft | 481 kts | 171° |
| 2026-05-04 01:18 | 28.18901 | -80.54283 | 27057 ft | 481 kts | 171° |
| 2026-05-04 01:18 | 28.15701 | -80.53166 | 27034 ft | 481 kts | 171° |
| 2026-05-04 01:18 | 28.12505 | -80.52049 | 27055 ft | 480 kts | 171° |
| 2026-05-04 01:18 | 28.09318 | -80.50937 | 27054 ft | 480 kts | 171° |
| 2026-05-04 01:19 | 28.07197 | -80.50197 | 27053 ft | 480 kts | 171° |
| 2026-05-04 01:19 | 28.02967 | -80.48722 | 27026 ft | 479 kts | 171° |
| 2026-05-04 01:19 | 27.99787 | -80.47614 | 27051 ft | 479 kts | 171° |
| 2026-05-04 01:19 | 27.96593 | -80.46502 | 27051 ft | 479 kts | 171° |
| 2026-05-04 01:20 | 27.93407 | -80.45394 | 27058 ft | 479 kts | 171° |
| 2026-05-04 01:20 | 27.90221 | -80.44286 | 27069 ft | 479 kts | 171° |
| 2026-05-04 01:20 | 27.88111 | -80.43553 | 27068 ft | 479 kts | 171° |
| 2026-05-04 01:20 | 27.84915 | -80.42443 | 27070 ft | 479 kts | 171° |
| 2026-05-04 01:21 | 27.81725 | -80.41337 | 27068 ft | 479 kts | 171° |
| 2026-05-04 01:21 | 27.78526 | -80.40228 | 27073 ft | 479 kts | 171° |
| 2026-05-04 01:21 | 27.74313 | -80.38767 | 27074 ft | 479 kts | 171° |
| 2026-05-04 01:21 | 27.72154 | -80.38019 | 27046 ft | 479 kts | 171° |
| 2026-05-04 01:22 | 27.68963 | -80.36913 | 27069 ft | 479 kts | 171° |
| 2026-05-04 01:22 | 27.65808 | -80.35821 | 27071 ft | 479 kts | 171° |
| 2026-05-04 01:22 | 27.62615 | -80.34717 | 27073 ft | 479 kts | 171° |
| 2026-05-04 01:22 | 27.59422 | -80.33614 | 27076 ft | 480 kts | 171° |
| 2026-05-04 01:23 | 27.56231 | -80.32512 | 27076 ft | 480 kts | 171° |
| 2026-05-04 01:23 | 27.53029 | -80.31407 | 27073 ft | 480 kts | 171° |
| 2026-05-04 01:23 | 27.49873 | -80.30317 | 27075 ft | 480 kts | 171° |
| 2026-05-04 01:23 | 27.46680 | -80.29216 | 27074 ft | 480 kts | 171° |
| 2026-05-04 01:24 | 27.43485 | -80.28115 | 27071 ft | 480 kts | 171° |
| 2026-05-04 01:24 | 27.40287 | -80.27012 | 27053 ft | 480 kts | 171° |
| 2026-05-04 01:24 | 27.37094 | -80.25913 | 27055 ft | 480 kts | 171° |
| 2026-05-04 01:24 | 27.33898 | -80.24813 | 27056 ft | 480 kts | 171° |
| 2026-05-04 01:25 | 27.30693 | -80.23711 | 27055 ft | 480 kts | 171° |
| 2026-05-04 01:25 | 27.27520 | -80.22621 | 27054 ft | 480 kts | 171° |
| 2026-05-04 01:25 | 27.24332 | -80.21527 | 26986 ft | 481 kts | 171° |
| 2026-05-04 01:25 | 27.21090 | -80.20419 | 26230 ft | 491 kts | 171° |
| 2026-05-04 01:26 | 27.17916 | -80.19333 | 25546 ft | 488 kts | 171° |
| 2026-05-04 01:26 | 27.14702 | -80.18226 | 24853 ft | 482 kts | 171° |
| 2026-05-04 01:26 | 27.11522 | -80.17129 | 24146 ft | 475 kts | 171° |
| 2026-05-04 01:26 | 27.08367 | -80.16045 | 23441 ft | 474 kts | 170° |
| 2026-05-04 01:27 | 27.05211 | -80.14967 | 22653 ft | 471 kts | 170° |
| 2026-05-04 01:27 | 27.02096 | -80.13901 | 21894 ft | 465 kts | 170° |
| 2026-05-04 01:27 | 26.99064 | -80.12863 | 21162 ft | 459 kts | 169° |
| 2026-05-04 01:27 | 26.96016 | -80.11821 | 20436 ft | 454 kts | 169° |
| 2026-05-04 01:28 | 26.93012 | -80.10798 | 19731 ft | 451 kts | 169° |
| 2026-05-04 01:28 | 26.90022 | -80.09780 | 19045 ft | 447 kts | 169° |
| 2026-05-04 01:28 | 26.87051 | -80.08770 | 18416 ft | 443 kts | 169° |
| 2026-05-04 01:28 | 26.84111 | -80.07769 | 17695 ft | 440 kts | 168° |
| 2026-05-04 01:29 | 26.81186 | -80.06774 | 16966 ft | 436 kts | 168° |
| 2026-05-04 01:29 | 26.78298 | -80.05791 | 16277 ft | 431 kts | 168° |
| 2026-05-04 01:29 | 26.75436 | -80.04818 | 15590 ft | 428 kts | 168° |
| 2026-05-04 01:29 | 26.72605 | -80.03856 | 14935 ft | 425 kts | 167° |
| 2026-05-04 01:30 | 26.69786 | -80.02899 | 14314 ft | 422 kts | 167° |
| 2026-05-04 01:30 | 26.66979 | -80.01946 | 13650 ft | 419 kts | 167° |
| 2026-05-04 01:30 | 26.64203 | -80.01004 | 13027 ft | 415 kts | 167° |
| 2026-05-04 01:30 | 26.61460 | -80.00074 | 12470 ft | 409 kts | 167° |
| 2026-05-04 01:31 | 26.58751 | -79.99155 | 11937 ft | 405 kts | 167° |
| 2026-05-04 01:31 | 26.56071 | -79.98248 | 11401 ft | 401 kts | 167° |
| 2026-05-04 01:31 | 26.53456 | -79.97364 | 10890 ft | 398 kts | 167° |
| 2026-05-04 01:31 | 26.50781 | -79.96461 | 10348 ft | 396 kts | 167° |
| 2026-05-04 01:32 | 26.48182 | -79.95584 | 9839 ft | 394 kts | 166° |
| 2026-05-04 01:32 | 26.45594 | -79.94707 | 9249 ft | 378 kts | 166° |
| 2026-05-04 01:32 | 26.43149 | -79.93876 | 8687 ft | 357 kts | 166° |
| 2026-05-04 01:32 | 26.40833 | -79.93094 | 8219 ft | 337 kts | 168° |
| 2026-05-04 01:33 | 26.38619 | -79.92858 | 8036 ft | 304 kts | 189° |
| 2026-05-04 01:33 | 26.36650 | -79.93384 | 7846 ft | 282 kts | 206° |
| 2026-05-04 01:33 | 26.34938 | -79.94350 | 7686 ft | 270 kts | 213° |
| 2026-05-04 01:33 | 26.33347 | -79.95396 | 7518 ft | 261 kts | 214° |
| 2026-05-04 01:34 | 26.31811 | -79.96414 | 7364 ft | 256 kts | 213° |
| 2026-05-04 01:34 | 26.30290 | -79.97411 | 7216 ft | 256 kts | 213° |
| 2026-05-04 01:34 | 26.28747 | -79.98412 | 7082 ft | 256 kts | 213° |
| 2026-05-04 01:34 | 26.27195 | -79.99411 | 6937 ft | 257 kts | 213° |
| 2026-05-04 01:35 | 26.25645 | -80.00409 | 6825 ft | 256 kts | 213° |
| 2026-05-04 01:35 | 26.24099 | -80.01402 | 6695 ft | 257 kts | 213° |
| 2026-05-04 01:35 | 26.22548 | -80.02391 | 6557 ft | 257 kts | 213° |
| 2026-05-04 01:35 | 26.20999 | -80.03388 | 6406 ft | 256 kts | 213° |
| 2026-05-04 01:36 | 26.19478 | -80.04367 | 6261 ft | 255 kts | 213° |
| 2026-05-04 01:36 | 26.18156 | -80.05639 | 6097 ft | 251 kts | 236° |
| 2026-05-04 01:36 | 26.17362 | -80.07351 | 5977 ft | 249 kts | 250° |
| 2026-05-04 01:36 | 26.16809 | -80.09173 | 5832 ft | 248 kts | 252° |
| 2026-05-04 01:37 | 26.16280 | -80.11001 | 5698 ft | 247 kts | 252° |
| 2026-05-04 01:37 | 26.15747 | -80.12820 | 5549 ft | 247 kts | 251° |
| 2026-05-04 01:37 | 26.15220 | -80.14595 | 5425 ft | 247 kts | 252° |
| 2026-05-04 01:37 | 26.14953 | -80.16493 | 5271 ft | 248 kts | 269° |
| 2026-05-04 01:38 | 26.14970 | -80.18400 | 5153 ft | 248 kts | 270° |
| 2026-05-04 01:38 | 26.14998 | -80.20321 | 5012 ft | 248 kts | 270° |
| 2026-05-04 01:38 | 26.15022 | -80.22247 | 4868 ft | 249 kts | 270° |
| 2026-05-04 01:38 | 26.15043 | -80.24180 | 4729 ft | 250 kts | 270° |
| 2026-05-04 01:39 | 26.15060 | -80.26095 | 4584 ft | 250 kts | 269° |
| 2026-05-04 01:39 | 26.15072 | -80.28034 | 4441 ft | 249 kts | 269° |
| 2026-05-04 01:39 | 26.15081 | -80.29956 | 4295 ft | 248 kts | 269° |
| 2026-05-04 01:39 | 26.15086 | -80.31881 | 4156 ft | 248 kts | 269° |
| 2026-05-04 01:40 | 26.15092 | -80.33804 | 4022 ft | 249 kts | 269° |
| 2026-05-04 01:40 | 26.14972 | -80.35720 | 3860 ft | 249 kts | 251° |
| 2026-05-04 01:40 | 26.13994 | -80.37270 | 3725 ft | 248 kts | 216° |
| 2026-05-04 01:40 | 26.12382 | -80.37836 | 3570 ft | 243 kts | 178° |
| 2026-05-04 01:41 | 26.10783 | -80.37366 | 3488 ft | 237 kts | 154° |
| 2026-05-04 01:41 | 26.09499 | -80.36213 | 3338 ft | 242 kts | 130° |
| 2026-05-04 01:41 | 26.08533 | -80.34673 | 3232 ft | 241 kts | 131° |
| 2026-05-04 01:41 | 26.07381 | -80.33362 | 3103 ft | 233 kts | 139° |
| 2026-05-04 01:42 | 26.06407 | -80.32004 | 3151 ft | 227 kts | 116° |
| 2026-05-04 01:42 | 26.05951 | -80.30339 | 2951 ft | 229 kts | 96° |
| 2026-05-04 01:42 | 26.05929 | -80.28600 | 2985 ft | 221 kts | 85° |
| 2026-05-04 01:42 | 26.06129 | -80.26919 | 2758 ft | 215 kts | 80° |
| 2026-05-04 01:43 | 26.06394 | -80.25334 | 2473 ft | 201 kts | 79° |
| 2026-05-04 01:43 | 26.06573 | -80.23842 | 2197 ft | 189 kts | 83° |
| 2026-05-04 01:43 | 26.06625 | -80.22417 | 1897 ft | 177 kts | 91° |
| 2026-05-04 01:43 | 26.06612 | -80.21108 | 1531 ft | 164 kts | 88° |
| 2026-05-04 01:44 | 26.06609 | -80.19881 | 1124 ft | 151 kts | 88° |
| 2026-05-04 01:44 | 26.06602 | -80.18769 | 778 ft | 137 kts | 88° |
| 2026-05-04 01:44 | 26.06598 | -80.17744 | 455 ft | 127 kts | 88° |
| 2026-05-04 01:44 | 26.06592 | -80.16778 | 214 ft | 128 kts | 88° |
| 2026-05-04 01:45 | 26.06586 | -80.15799 | 44 ft | 122 kts | 89° |
| 2026-05-04 01:45 | 26.06585 | -80.14969 | 18 ft | 87 kts | 90° |
| 2026-05-04 01:45 | 26.06626 | -80.14241 | 53 ft | 10 kts | 43° |
| 2026-05-04 01:46 | 26.06657 | -80.14224 | 50 ft | 3 kts | 8° |
| 2026-05-04 01:46 | 26.06676 | -80.14251 | 48 ft | 5 kts | 277° |
| 2026-05-04 01:46 | 26.06676 | -80.14253 | 48 ft | 0 kts | 277° |
| 2026-05-04 01:47 | 26.06676 | -80.14264 | 48 ft | 2 kts | 275° |
| 2026-05-04 01:47 | 26.06678 | -80.14306 | 48 ft | 8 kts | 270° |
| 2026-05-04 01:47 | 26.06677 | -80.14363 | 48 ft | 8 kts | 269° |
| 2026-05-04 01:48 | 26.06676 | -80.14437 | 44 ft | 12 kts | 269° |
| 2026-05-04 01:48 | 26.06676 | -80.14540 | 42 ft | 14 kts | 271° |
| 2026-05-04 01:48 | 26.06676 | -80.14650 | 33 ft | 13 kts | 270° |
| 2026-05-04 01:48 | 26.06676 | -80.14755 | 28 ft | 14 kts | 270° |
| 2026-05-04 01:49 | 26.06683 | -80.14854 | 18 ft | 12 kts | 285° |
| 2026-05-04 01:49 | 26.06692 | -80.14960 | 17 ft | 15 kts | 264° |
| 2026-05-04 01:49 | 26.06694 | -80.15073 | 18 ft | 13 kts | 271° |
| 2026-05-04 01:49 | 26.06737 | -80.15130 | 17 ft | 10 kts | 355° |
| 2026-05-04 01:50 | 26.06821 | -80.15130 | 15 ft | 12 kts | 1° |
| 2026-05-04 01:50 | 26.06898 | -80.15129 | 15 ft | 10 kts | 1° |
| 2026-05-04 01:50 | 26.06961 | -80.15129 | 15 ft | 8 kts | 0° |
| 2026-05-04 01:50 | 26.07020 | -80.15129 | 15 ft | 10 kts | 360° |
| 2026-05-04 01:51 | 26.07098 | -80.15128 | 15 ft | 12 kts | 1° |
| 2026-05-04 01:51 | 26.07179 | -80.15128 | 15 ft | 12 kts | 358° |
| 2026-05-04 01:51 | 26.07257 | -80.15128 | 15 ft | 11 kts | 1° |
| 2026-05-04 01:51 | 26.07324 | -80.15127 | 15 ft | 9 kts | 1° |
| 2026-05-04 01:52 | 26.07384 | -80.15125 | 16 ft | 10 kts | 360° |
| 2026-05-04 01:52 | 26.07461 | -80.15121 | 15 ft | 11 kts | 15° |
| 2026-05-04 01:52 | 26.07484 | -80.15100 | 15 ft | 2 kts | 66° |
| 2026-05-04 01:52 | 26.07488 | -80.15044 | 15 ft | 12 kts | 91° |
| 2026-05-04 01:53 | 26.07489 | -80.14954 | 15 ft | 12 kts | 88° |
| 2026-05-04 01:53 | 26.07486 | -80.14864 | 15 ft | 11 kts | 92° |
| 2026-05-04 01:53 | 26.07487 | -80.14777 | 15 ft | 11 kts | 88° |
| 2026-05-04 01:53 | 26.07488 | -80.14692 | 15 ft | 12 kts | 91° |
| 2026-05-04 01:54 | 26.07487 | -80.14573 | 15 ft | 16 kts | 90° |
| 2026-05-04 01:54 | 26.07486 | -80.14451 | 15 ft | 16 kts | 89° |
| 2026-05-04 01:54 | 26.07486 | -80.14326 | 15 ft | 17 kts | 91° |
| 2026-05-04 01:54 | 26.07485 | -80.14200 | 15 ft | 16 kts | 91° |
| 2026-05-04 01:55 | 26.07484 | -80.14078 | 15 ft | 15 kts | 83° |
| 2026-05-04 01:55 | 26.07485 | -80.13959 | 15 ft | 15 kts | 92° |
| 2026-05-04 01:55 | 26.07470 | -80.13846 | 15 ft | 14 kts | 97° |
| 2026-05-04 01:55 | 26.07458 | -80.13750 | 16 ft | 7 kts | 127° |
| 2026-05-04 01:56 | 26.07433 | -80.13736 | 15 ft | 4 kts | 174° |
| 2026-05-04 01:56 | 26.07406 | -80.13735 | 15 ft | 4 kts | 178° |
| 2026-05-04 01:56 | 26.07393 | -80.13738 | 15 ft | 2 kts | 213° |
| 2026-05-04 01:56 | 26.07382 | -80.13765 | 15 ft | 5 kts | 246° |
| 2026-05-04 01:57 | 26.07373 | -80.13791 | 17 ft | 0 kts | 246° |